Time;durP1;ratioP1;P1;durP2;ratioP2;P2;SDS_P1;SDS_P2;PMS_P1;PMS_P2;Temp;Humidity;BMP_temperature;BMP_pressure;BME280_temperature;BME280_humidity;BME280_pressure;Samples;Min_cycle;Max_cycle;Signal;HPM_P1;HPM_P2
2021/11/12 00:02:19;;;;;;;126.78;36.30;;;3.80;99.90;;;;;;4992111;28;20455;-76
2021/11/12 00:15:50;;;;;;;102.88;38.50;;;3.30;99.90;;;;;;4991298;28;20061;-79
2021/11/12 00:18:19;;;;;;;93.97;40.85;;;3.30;99.90;;;;;;5009956;28;20038;-78
2021/11/12 00:20:45;;;;;;;181.57;39.65;;;3.40;99.90;;;;;;5033352;28;20089;-79
2021/11/12 00:23:12;;;;;;;95.90;37.05;;;3.50;99.90;;;;;;5012836;28;20094;-80
2021/11/12 00:25:38;;;;;;;100.93;35.60;;;3.50;99.90;;;;;;5009981;28;20074;-80
2021/11/12 00:28:05;;;;;;;104.65;36.95;;;3.60;99.90;;;;;;5007920;28;20030;-79
2021/11/12 00:30:45;;;;;;;101.93;35.17;;;3.70;99.90;;;;;;5004308;28;20076;-80
2021/11/12 00:38:44;;;;;;;101.18;38.85;;;3.20;99.90;;;;;;5006833;28;19972;-78
2021/11/12 00:41:20;;;;;;;140.73;40.72;;;3.20;99.90;;;;;;4988722;28;20022;-75
2021/11/12 00:43:52;;;;;;;111.18;38.90;;;3.10;99.90;;;;;;4988072;28;20046;-75
2021/11/12 00:46:23;;;;;;;135.18;38.70;;;3.10;99.90;;;;;;4992573;28;20126;-75
2021/11/12 00:56:18;;;;;;;200.02;38.60;;;3.10;99.90;;;;;;4988174;28;20142;-77
2021/11/12 00:58:44;;;;;;;276.58;44.35;;;3.00;99.90;;;;;;4982261;28;20105;-76
2021/11/12 01:01:11;;;;;;;126.53;40.92;;;3.10;99.90;;;;;;4988160;28;20613;-75
2021/11/12 01:03:37;;;;;;;133.93;40.55;;;3.00;99.90;;;;;;4993255;28;20026;-75
2021/11/12 01:06:02;;;;;;;117.32;35.30;;;3.20;99.90;;;;;;4982397;28;20482;-75
2021/11/12 01:08:28;;;;;;;134.65;35.78;;;3.50;99.90;;;;;;4994386;28;20028;-75
2021/11/12 01:10:55;;;;;;;115.07;36.75;;;3.70;99.90;;;;;;4990845;28;20114;-76
2021/11/12 01:13:22;;;;;;;94.20;38.17;;;3.60;99.90;;;;;;4987893;28;20031;-75
2021/11/12 01:15:47;;;;;;;133.73;38.40;;;3.30;99.90;;;;;;4992413;28;20023;-75
2021/11/12 01:18:13;;;;;;;91.15;40.25;;;3.20;99.90;;;;;;4985289;28;20093;-75
2021/11/12 01:20:39;;;;;;;130.05;39.85;;;3.20;99.90;;;;;;4985223;28;20034;-75
2021/11/12 01:23:05;;;;;;;139.95;38.47;;;3.10;99.90;;;;;;4987991;28;20027;-75
2021/11/12 01:25:32;;;;;;;111.53;42.13;;;3.10;99.90;;;;;;4985002;28;20023;-75
2021/11/12 01:27:58;;;;;;;126.10;38.40;;;3.10;99.90;;;;;;4981353;28;20030;-75
2021/11/12 01:30:24;;;;;;;113.63;40.38;;;3.20;99.90;;;;;;4987889;28;20023;-75
2021/11/12 01:32:50;;;;;;;108.50;36.75;;;3.20;99.90;;;;;;4981586;28;20026;-76
2021/11/12 01:35:18;;;;;;;133.77;36.53;;;3.20;99.90;;;;;;5003750;28;20030;-74
2021/11/12 01:37:45;;;;;;;98.55;33.83;;;3.30;99.90;;;;;;5005817;28;20042;-75
2021/11/12 01:40:21;;;;;;;100.40;39.13;;;3.30;99.90;;;;;;5011224;28;20122;-75
2021/11/12 01:43:01;;;;;;;79.68;34.85;;;3.20;99.90;;;;;;5011236;28;20023;-73
2021/11/12 01:45:36;;;;;;;82.93;33.10;;;3.10;99.90;;;;;;5020327;28;20057;-75
2021/11/12 01:51:10;;;;;;;90.28;30.98;;;3.60;99.90;;;;;;4991731;28;20397;-74
2021/11/12 01:53:36;;;;;;;63.03;33.67;;;3.50;99.90;;;;;;4991189;28;20112;-75
2021/11/12 01:59:08;;;;;;;94.25;36.05;;;3.30;99.90;;;;;;4987510;28;20065;-75
2021/11/12 02:01:39;;;;;;;71.93;36.75;;;3.20;99.90;;;;;;4990582;28;20118;-74
2021/11/12 02:04:07;;;;;;;110.05;36.60;;;3.00;99.90;;;;;;4998297;28;20025;-75
2021/11/12 02:06:33;;;;;;;82.90;34.80;;;3.10;99.90;;;;;;5007982;28;20050;-75
2021/11/12 02:09:02;;;;;;;86.38;35.22;;;3.20;99.90;;;;;;4992793;28;20019;-75
2021/11/12 02:11:28;;;;;;;65.65;34.08;;;3.10;99.90;;;;;;4990049;28;20030;-75
2021/11/12 02:13:54;;;;;;;59.80;36.42;;;3.00;99.90;;;;;;4997194;28;20506;-74
2021/11/12 02:16:25;;;;;;;106.93;34.60;;;2.90;99.90;;;;;;4990519;28;20026;-74
2021/11/12 02:18:51;;;;;;;75.88;37.65;;;2.90;99.90;;;;;;4982651;28;20031;-74
2021/11/12 02:21:27;;;;;;;97.15;35.05;;;2.90;99.90;;;;;;4992220;28;20034;-74
2021/11/12 02:24:05;;;;;;;100.60;35.33;;;3.10;99.90;;;;;;4991797;28;20021;-76
2021/11/12 02:26:35;;;;;;;84.57;36.40;;;3.10;99.90;;;;;;4988099;28;20054;-73
2021/11/12 02:29:02;;;;;;;132.02;35.65;;;3.00;99.90;;;;;;4993420;28;20037;-75
2021/11/12 02:31:28;;;;;;;73.38;32.15;;;2.90;99.90;;;;;;4985849;28;20069;-74
2021/11/12 02:33:56;;;;;;;95.47;32.58;;;2.90;99.90;;;;;;4993094;28;20026;-73
2021/11/12 02:36:22;;;;;;;171.80;32.75;;;3.20;99.90;;;;;;4988575;28;20030;-75
2021/11/12 02:38:54;;;;;;;213.82;34.38;;;3.20;99.90;;;;;;4997809;28;20022;-74
2021/11/12 02:41:21;;;;;;;150.52;32.95;;;3.30;99.90;;;;;;5002194;28;20026;-75
2021/11/12 02:43:48;;;;;;;126.80;31.27;;;3.10;99.90;;;;;;4987190;28;20034;-75
2021/11/12 02:46:17;;;;;;;114.72;31.05;;;3.30;99.90;;;;;;4986754;28;20023;-75
2021/11/12 02:48:42;;;;;;;104.35;30.48;;;3.40;99.90;;;;;;4986951;28;20106;-75
2021/11/12 02:51:16;;;;;;;149.30;32.63;;;3.30;99.90;;;;;;4991148;28;20113;-76
2021/11/12 02:53:42;;;;;;;147.75;34.08;;;3.30;99.90;;;;;;5001958;28;20470;-74
2021/11/12 02:56:28;;;;;;;79.60;31.30;;;3.20;99.90;;;;;;4991830;28;20038;-76
2021/11/12 02:59:05;;;;;;;91.22;31.50;;;3.20;99.90;;;;;;4988400;28;20441;-75
2021/11/12 03:01:34;;;;;;;146.40;30.95;;;3.20;99.90;;;;;;4986664;28;20065;-74
2021/11/12 03:04:01;;;;;;;170.45;32.95;;;3.20;99.90;;;;;;5008079;28;20026;-75
2021/11/12 03:06:27;;;;;;;81.30;30.50;;;3.30;99.90;;;;;;5002850;28;20060;-74
2021/11/12 03:08:57;;;;;;;121.55;30.58;;;3.30;99.90;;;;;;4992902;28;20370;-74
2021/11/12 03:11:22;;;;;;;82.72;31.70;;;3.30;99.90;;;;;;4993538;28;20037;-76
2021/11/12 03:13:49;;;;;;;139.73;31.42;;;3.30;99.90;;;;;;4991081;28;20022;-75
2021/11/12 03:16:16;;;;;;;71.20;31.90;;;3.20;99.90;;;;;;4984393;28;20073;-75
2021/11/12 03:18:42;;;;;;;87.68;32.65;;;3.00;99.90;;;;;;4988674;28;20027;-74
2021/11/12 03:21:11;;;;;;;73.15;32.80;;;3.00;99.90;;;;;;4982694;28;20034;-76
2021/11/12 03:23:47;;;;;;;85.40;32.97;;;3.00;99.90;;;;;;4986361;28;20030;-75
2021/11/12 05:33:30;;;;;;;60.72;27.63;;;2.60;99.90;;;;;;5013115;28;20081;-77
2021/11/12 05:55:27;;;;;;;40.85;27.73;;;2.30;99.90;;;;;;5014136;28;20125;-77
2021/11/12 05:57:53;;;;;;;42.35;28.05;;;2.30;99.90;;;;;;5011724;28;20070;-78
2021/11/12 06:00:19;;;;;;;62.80;26.10;;;2.20;99.90;;;;;;5010234;28;20029;-77
2021/11/12 06:02:46;;;;;;;98.70;26.42;;;2.40;99.90;;;;;;5013608;28;20037;-78
2021/11/12 06:05:12;;;;;;;46.65;26.38;;;2.50;99.90;;;;;;5012299;28;20448;-77
2021/11/12 06:07:38;;;;;;;51.95;27.30;;;2.30;99.90;;;;;;5013881;28;20026;-78
2021/11/12 06:10:05;;;;;;;76.13;30.95;;;2.30;99.90;;;;;;5017336;28;20034;-77
2021/11/12 06:12:31;;;;;;;97.90;26.10;;;2.40;99.90;;;;;;5011812;28;20110;-78
2021/11/12 06:14:57;;;;;;;63.75;24.65;;;2.60;99.90;;;;;;5018309;28;20040;-77
2021/11/12 06:17:23;;;;;;;125.50;25.83;;;2.70;99.90;;;;;;5017212;28;20029;-77
2021/11/12 06:19:48;;;;;;;109.32;24.92;;;2.80;99.90;;;;;;5012815;28;20054;-77
2021/11/12 06:22:14;;;;;;;68.13;25.10;;;2.60;99.90;;;;;;5008170;28;20030;-77
2021/11/12 06:24:39;;;;;;;52.53;26.50;;;2.70;99.90;;;;;;5011409;28;20087;-77
2021/11/12 06:27:07;;;;;;;43.25;26.63;;;2.70;99.90;;;;;;5022191;28;20061;-77
2021/11/12 06:29:33;;;;;;;40.35;27.95;;;2.70;99.90;;;;;;5007877;28;20024;-76
2021/11/12 06:31:59;;;;;;;89.82;27.85;;;2.60;99.90;;;;;;5005274;28;20101;-77
2021/11/12 06:34:25;;;;;;;62.10;27.63;;;2.70;99.90;;;;;;5013006;28;20073;-78
2021/11/12 06:36:51;;;;;;;116.65;25.58;;;2.70;99.90;;;;;;5015986;28;20026;-78
2021/11/12 06:39:17;;;;;;;51.78;26.67;;;2.80;99.90;;;;;;5013668;28;20117;-78
2021/11/12 06:41:54;;;;;;;42.63;26.83;;;2.60;99.90;;;;;;5015719;28;20472;-78
2021/11/12 06:44:28;;;;;;;44.35;27.92;;;2.60;99.90;;;;;;5015004;28;20026;-77
2021/11/12 06:49:53;;;;;;;43.22;26.85;;;2.40;99.90;;;;;;5015969;28;20029;-77
2021/11/12 06:52:20;;;;;;;57.92;26.15;;;2.50;99.90;;;;;;5015851;28;20034;-76
2021/11/12 06:54:46;;;;;;;65.32;26.48;;;2.60;99.90;;;;;;5015124;28;20026;-79
2021/11/12 06:57:17;;;;;;;45.63;28.65;;;2.60;99.90;;;;;;5011820;28;20419;-77
2021/11/12 06:59:44;;;;;;;105.00;26.55;;;2.70;99.90;;;;;;5015700;28;20092;-76
2021/11/12 07:02:11;;;;;;;51.03;31.05;;;2.50;99.90;;;;;;5015452;28;20041;-78
2021/11/12 07:04:37;;;;;;;63.28;27.35;;;2.40;99.90;;;;;;5020146;28;20037;-77
2021/11/12 07:07:05;;;;;;;49.38;26.92;;;2.50;99.90;;;;;;5031024;28;20038;-77
2021/11/12 07:09:31;;;;;;;57.92;27.10;;;2.60;99.90;;;;;;5034938;28;20030;-75
2021/11/12 07:11:57;;;;;;;94.50;28.90;;;2.40;99.90;;;;;;5030485;28;20145;-76
2021/11/12 07:14:22;;;;;;;49.45;29.45;;;2.50;99.90;;;;;;5021785;28;20129;-77
2021/11/12 07:16:48;;;;;;;67.43;29.27;;;2.60;99.90;;;;;;5015846;28;20110;-78
2021/11/12 07:19:14;;;;;;;57.20;29.75;;;2.50;99.90;;;;;;5010585;28;20101;-77
2021/11/12 07:21:40;;;;;;;62.05;29.10;;;2.40;99.90;;;;;;5007867;28;20030;-77
2021/11/12 07:24:05;;;;;;;71.22;30.52;;;2.50;99.90;;;;;;5012085;28;20026;-77
2021/11/12 07:26:32;;;;;;;51.65;27.63;;;2.70;99.90;;;;;;5021590;28;20030;-77
2021/11/12 07:28:59;;;;;;;51.47;26.33;;;2.80;99.90;;;;;;5017434;28;20029;-77
2021/11/12 07:31:25;;;;;;;54.17;28.92;;;3.00;99.90;;;;;;5013545;28;20033;-78
2021/11/12 07:33:50;;;;;;;49.90;26.17;;;3.10;99.90;;;;;;5014190;28;20076;-78
2021/11/12 07:36:22;;;;;;;56.80;27.75;;;3.20;99.90;;;;;;5013391;28;20122;-78
2021/11/12 07:38:59;;;;;;;46.63;27.85;;;3.10;99.90;;;;;;5013148;28;20061;-77
2021/11/12 07:41:53;;;;;;;51.10;28.45;;;3.00;99.90;;;;;;5009785;28;20178;-78
2021/11/12 07:47:15;;;;;;;50.70;27.95;;;3.20;99.90;;;;;;5000383;28;20413;-77
2021/11/12 07:49:46;;;;;;;43.83;27.70;;;3.20;99.90;;;;;;5011297;28;20101;-78
2021/11/12 07:52:12;;;;;;;48.13;27.23;;;3.20;99.90;;;;;;5016549;28;20030;-77
2021/11/12 07:54:39;;;;;;;41.33;25.73;;;3.30;99.90;;;;;;5033719;28;20101;-78
2021/11/12 07:57:06;;;;;;;48.22;28.05;;;3.40;99.90;;;;;;5011558;28;20034;-78
2021/11/12 07:59:31;;;;;;;47.15;27.30;;;3.10;99.90;;;;;;5010924;28;20068;-78
2021/11/12 08:01:57;;;;;;;47.97;27.27;;;3.30;99.90;;;;;;5013188;28;20121;-78
2021/11/12 08:04:23;;;;;;;48.35;28.77;;;3.30;99.90;;;;;;5011360;28;20022;-79
2021/11/12 08:06:51;;;;;;;58.70;26.17;;;3.40;99.90;;;;;;5011478;28;20026;-77
2021/11/12 08:09:19;;;;;;;49.22;29.73;;;3.50;99.90;;;;;;5016676;28;20562;-78
2021/11/12 08:11:49;;;;;;;46.85;27.67;;;3.20;99.90;;;;;;5018815;28;20166;-78
2021/11/12 08:14:23;;;;;;;49.45;27.02;;;3.30;99.90;;;;;;5029515;28;20037;-77
2021/11/12 08:22:09;;;;;;;44.55;28.80;;;3.10;99.90;;;;;;5022034;28;20041;-79
2021/11/12 08:27:41;;;;;;;42.58;25.90;;;3.20;99.90;;;;;;5023809;28;20097;-81
2021/11/12 08:33:08;;;;;;;44.00;27.20;;;3.50;99.90;;;;;;4993545;28;20034;-78
2021/11/12 08:35:42;;;;;;;44.97;27.33;;;3.80;99.90;;;;;;5018836;28;20113;-76
2021/11/12 08:38:18;;;;;;;47.65;29.80;;;3.90;99.90;;;;;;5014417;28;20054;-77
2021/11/12 08:41:34;;;;;;;40.80;27.58;;;4.00;99.90;;;;;;5017553;28;20034;-78
2021/11/12 08:43:33;;;;;;;38.97;27.33;;;3.90;99.90;;;;;;5006812;28;20121;-78
2021/11/12 08:48:36;;;;;;;41.85;26.67;;;3.70;99.90;;;;;;5010484;28;20030;-77
2021/11/12 08:51:02;;;;;;;42.15;26.73;;;3.60;99.90;;;;;;5015424;28;20116;-78
2021/11/12 08:53:27;;;;;;;50.70;29.35;;;3.70;99.90;;;;;;5015814;28;20115;-78
2021/11/12 08:55:53;;;;;;;40.65;27.48;;;3.80;99.90;;;;;;5017320;28;20026;-79
2021/11/12 08:58:18;;;;;;;43.47;26.98;;;3.90;99.90;;;;;;5025134;28;20030;-81
2021/11/12 09:00:44;;;;;;;51.80;26.17;;;4.00;99.90;;;;;;5017825;28;20056;-79
2021/11/12 09:03:11;;;;;;;49.38;28.52;;;4.10;99.90;;;;;;5015658;28;20057;-79
2021/11/12 09:05:38;;;;;;;46.75;28.52;;;4.10;99.90;;;;;;5007574;28;20030;-78
2021/11/12 09:08:03;;;;;;;41.70;28.52;;;4.20;99.90;;;;;;5014458;28;20057;-79
2021/11/12 09:10:30;;;;;;;40.33;25.85;;;4.20;99.90;;;;;;5020600;28;20049;-79
2021/11/12 09:13:13;;;;;;;44.63;27.65;;;4.20;99.90;;;;;;5020699;28;20037;-79
2021/11/12 09:15:39;;;;;;;41.65;26.55;;;4.20;99.90;;;;;;5013433;28;20022;-78
2021/11/12 09:18:04;;;;;;;43.00;25.67;;;4.10;99.90;;;;;;5014498;28;20041;-78
2021/11/12 09:20:31;;;;;;;38.75;26.48;;;4.30;99.90;;;;;;5011716;28;20038;-78
2021/11/12 09:22:59;;;;;;;34.70;26.08;;;4.40;99.90;;;;;;5005491;28;20366;-78
2021/11/12 09:25:25;;;;;;;34.58;26.08;;;4.60;99.90;;;;;;5011783;28;20022;-79
2021/11/12 09:27:51;;;;;;;36.50;25.70;;;4.70;99.90;;;;;;5011327;28;20033;-79
2021/11/12 09:30:24;;;;;;;37.88;25.73;;;4.80;99.90;;;;;;5020431;28;20168;-79
2021/11/12 09:32:51;;;;;;;34.17;24.80;;;4.60;99.90;;;;;;5015791;28;20025;-79
2021/11/12 09:35:17;;;;;;;39.83;28.23;;;4.50;99.90;;;;;;5014913;28;20022;-79
2021/11/12 09:37:43;;;;;;;38.08;27.10;;;4.70;99.90;;;;;;5010715;28;20025;-78
2021/11/12 09:40:09;;;;;;;36.65;26.50;;;4.70;99.90;;;;;;5002670;28;20514;-78
2021/11/12 09:42:37;;;;;;;36.53;25.88;;;4.80;99.90;;;;;;5009407;28;20650;-78
2021/11/12 09:45:06;;;;;;;38.67;26.73;;;4.80;99.90;;;;;;5008462;28;20113;-77
2021/11/12 09:47:33;;;;;;;31.13;25.30;;;4.60;99.90;;;;;;5009473;28;20375;-79
2021/11/12 09:50:01;;;;;;;35.58;25.90;;;4.70;99.90;;;;;;5002300;28;20086;-79
2021/11/12 09:52:30;;;;;;;33.25;24.75;;;4.70;99.90;;;;;;5010786;28;20037;-78
2021/11/12 09:54:56;;;;;;;34.83;25.73;;;4.70;99.90;;;;;;5005117;28;20026;-78
2021/11/12 09:57:23;;;;;;;37.90;26.52;;;4.80;99.90;;;;;;5014343;28;20089;-78
2021/11/12 09:59:58;;;;;;;32.78;25.20;;;4.70;99.90;;;;;;5019445;28;20022;-79
2021/11/12 10:02:26;;;;;;;31.58;23.70;;;4.50;99.90;;;;;;5006474;28;20028;-79
2021/11/12 10:04:52;;;;;;;34.60;24.83;;;4.70;99.90;;;;;;5019115;28;20370;-80
2021/11/12 10:07:17;;;;;;;32.72;26.60;;;4.80;99.90;;;;;;5016385;28;20037;-79
2021/11/12 10:09:48;;;;;;;33.47;24.40;;;4.90;99.90;;;;;;5006154;28;20030;-79
2021/11/12 10:12:14;;;;;;;38.35;25.63;;;5.10;99.90;;;;;;5008522;28;20034;-77
2021/11/12 10:14:54;;;;;;;29.50;23.65;;;5.30;99.90;;;;;;5022763;28;20083;-78
2021/11/12 10:17:21;;;;;;;29.33;23.48;;;5.30;99.90;;;;;;5017586;28;20069;-78
2021/11/12 10:19:53;;;;;;;39.90;25.88;;;5.10;99.90;;;;;;5023696;28;20033;-79
2021/11/12 10:22:24;;;;;;;33.92;24.45;;;5.30;99.90;;;;;;5035660;28;20045;-79
2021/11/12 10:24:49;;;;;;;35.00;24.30;;;5.40;99.90;;;;;;5035249;28;20010;-79
2021/11/12 10:27:25;;;;;;;32.28;24.92;;;5.40;99.90;;;;;;5030889;28;20056;-78
2021/11/12 10:29:54;;;;;;;41.03;26.65;;;5.40;99.90;;;;;;5009274;28;20104;-79
2021/11/12 10:32:25;;;;;;;32.80;26.30;;;5.30;99.90;;;;;;5021774;28;20026;-79
2021/11/12 10:34:54;;;;;;;32.45;25.80;;;5.10;99.90;;;;;;5034320;28;20022;-77
2021/11/12 10:37:25;;;;;;;37.90;26.83;;;5.10;99.90;;;;;;5020443;28;20031;-78
2021/11/12 10:39:52;;;;;;;;;;;5.00;99.90;;;;;;5014090;28;20022;-78
2021/11/12 10:42:20;;;;;;;33.20;26.23;;;4.90;99.90;;;;;;5015462;28;19917;-78
2021/11/12 10:44:54;;;;;;;33.53;25.83;;;5.30;99.90;;;;;;5026353;28;20030;-78
2021/11/12 10:47:21;;;;;;;39.38;26.98;;;5.50;99.90;;;;;;5017734;28;20030;-78
2021/11/12 10:49:49;;;;;;;34.08;26.20;;;5.40;99.90;;;;;;5014434;28;20026;-79
2021/11/12 10:52:20;;;;;;;34.53;26.67;;;5.20;99.90;;;;;;5005357;28;20030;-79
2021/11/12 10:54:57;;;;;;;45.13;28.05;;;5.30;99.90;;;;;;5014279;28;20440;-77
2021/11/12 10:57:28;;;;;;;37.17;26.63;;;5.50;99.90;;;;;;5020248;28;20101;-79
2021/11/12 11:00:15;;;;;;;33.20;25.75;;;5.50;99.90;;;;;;5011961;28;20026;-78
2021/11/12 11:02:48;;;;;;;35.67;27.33;;;5.50;99.90;;;;;;5013768;28;20040;-79
2021/11/12 11:05:31;;;;;;;35.10;26.15;;;5.60;99.90;;;;;;5024939;28;20093;-78
2021/11/12 11:07:58;;;;;;;37.13;27.67;;;5.70;99.90;;;;;;5026772;28;20032;-79
2021/11/12 11:10:39;;;;;;;37.67;27.70;;;5.70;99.90;;;;;;5020502;28;20462;-80
2021/11/12 11:13:10;;;;;;;33.63;26.40;;;5.80;99.90;;;;;;5016098;28;20050;-79
2021/11/12 11:15:47;;;;;;;32.58;27.20;;;5.80;99.90;;;;;;5025533;28;20029;-80
2021/11/12 11:18:24;;;;;;;33.60;26.60;;;6.00;99.90;;;;;;5024883;28;20033;-78
2021/11/12 11:20:52;;;;;;;34.70;26.08;;;6.10;99.90;;;;;;5016342;23;20609;-74
2021/11/12 11:23:20;;;;;;;36.83;27.58;;;6.00;99.90;;;;;;4986393;28;20069;-73
2021/11/12 11:26:05;;;;;;;39.60;27.33;;;6.00;99.90;;;;;;4994341;28;20282;-72
2021/11/12 11:28:32;;;;;;;34.60;27.00;;;6.20;99.90;;;;;;4995035;28;20022;-74
2021/11/12 11:31:00;;;;;;;39.88;28.83;;;6.10;99.90;;;;;;4984584;28;20042;-74
2021/11/12 11:33:26;;;;;;;39.40;29.75;;;6.20;99.90;;;;;;4990910;28;20054;-73
2021/11/12 11:35:55;;;;;;;37.90;27.48;;;5.80;99.90;;;;;;4992990;28;20026;-72
2021/11/12 11:38:25;;;;;;;40.30;27.75;;;5.30;99.90;;;;;;4994321;28;20520;-73
2021/11/12 11:40:51;;;;;;;40.03;29.48;;;5.60;99.90;;;;;;4993463;28;20073;-72
2021/11/12 11:43:17;;;;;;;37.67;28.60;;;5.60;99.90;;;;;;4988890;28;20387;-73
2021/11/12 11:45:46;;;;;;;39.42;28.75;;;5.70;99.90;;;;;;4995206;28;20031;-72
2021/11/12 11:48:14;;;;;;;39.38;29.33;;;5.30;99.90;;;;;;4994172;28;20026;-75
2021/11/12 11:50:56;;;;;;;38.25;29.15;;;5.30;99.90;;;;;;4994177;28;20117;-74
2021/11/12 11:53:26;;;;;;;41.70;29.77;;;5.60;99.90;;;;;;4988657;28;20048;-74
2021/11/12 11:56:09;;;;;;;42.40;28.83;;;5.60;99.90;;;;;;4989743;28;20027;-72
2021/11/12 11:58:49;;;;;;;40.28;29.02;;;5.90;99.90;;;;;;4985644;28;20544;-75
2021/11/12 12:01:18;;;;;;;44.50;28.50;;;5.90;99.90;;;;;;4980694;28;20045;-74
2021/11/12 12:03:47;;;;;;;40.53;30.00;;;5.60;99.90;;;;;;4986888;28;20054;-74
2021/11/12 12:06:20;;;;;;;42.50;30.70;;;6.00;99.90;;;;;;4988446;28;20105;-75
2021/11/12 12:09:08;;;;;;;39.80;29.45;;;6.30;99.90;;;;;;5004018;28;20023;-72
2021/11/12 12:11:50;;;;;;;38.90;30.35;;;6.10;99.90;;;;;;4997724;28;20042;-73
2021/11/12 12:14:31;;;;;;;41.47;30.30;;;6.30;99.90;;;;;;4991249;28;20019;-75
2021/11/12 12:17:14;;;;;;;;;;;6.30;99.90;;;;;;4989383;28;20028;-74
2021/11/12 12:31:38;;;;;;;42.35;30.33;;;5.90;99.90;;;;;;4993259;28;20089;-74
2021/11/12 13:25:53;;;;;;;51.15;36.20;;;6.30;99.90;;;;;;4981647;28;20089;-76
2021/11/12 13:28:27;;;;;;;54.63;34.88;;;6.40;99.90;;;;;;4989996;28;20041;-76
2021/11/12 13:30:54;;;;;;;57.72;38.75;;;6.30;99.90;;;;;;4984049;28;20062;-76
2021/11/12 13:33:35;;;;;;;50.22;34.67;;;6.20;99.90;;;;;;4988980;28;20034;-75
2021/11/12 13:36:19;;;;;;;44.35;33.25;;;6.30;99.90;;;;;;4987449;28;20084;-75
2021/11/12 13:38:55;;;;;;;50.08;33.42;;;6.30;99.90;;;;;;4993514;28;20073;-74
2021/11/12 13:41:39;;;;;;;48.03;34.17;;;6.20;99.90;;;;;;4988266;28;20501;-76
2021/11/12 13:44:09;;;;;;;48.63;33.40;;;6.30;99.90;;;;;;4989386;28;20437;-76
2021/11/12 13:46:54;;;;;;;46.22;34.92;;;6.40;99.90;;;;;;4999839;28;20031;-76
2021/11/12 13:49:40;;;;;;;48.45;34.92;;;6.20;99.90;;;;;;4999423;28;20019;-75
2021/11/12 13:52:07;;;;;;;46.22;35.05;;;6.20;99.90;;;;;;5011791;28;20049;-74
2021/11/12 13:54:44;;;;;;;49.60;34.97;;;6.00;99.90;;;;;;5011483;28;20026;-75
2021/11/12 13:57:30;;;;;;;48.75;35.20;;;5.90;99.90;;;;;;5003096;28;20053;-75
2021/11/12 14:00:06;;;;;;;49.33;35.85;;;5.90;99.90;;;;;;4996527;28;20045;-75
2021/11/12 14:02:54;;;;;;;51.30;34.40;;;5.60;99.90;;;;;;4993368;28;20082;-75
2021/11/12 14:05:22;;;;;;;49.53;34.40;;;5.60;99.90;;;;;;4992939;28;20026;-74
2021/11/12 14:08:09;;;;;;;51.42;32.92;;;5.90;99.90;;;;;;4987536;28;20026;-77
2021/11/12 14:10:45;;;;;;;48.30;33.67;;;5.80;99.90;;;;;;4986675;28;20031;-74
2021/11/12 14:13:17;;;;;;;49.28;33.00;;;5.50;99.90;;;;;;4994872;28;20040;-75
2021/11/12 14:18:40;;;;;;;42.75;31.63;;;5.80;99.90;;;;;;5001765;28;20414;-74
2021/11/12 14:45:38;;;;;;;56.33;35.92;;;5.30;99.90;;;;;;4993679;28;20032;-77
2021/11/12 14:53:51;;;;;;;;;;;4.80;99.90;;;;;;4991966;28;20033;-78
2021/11/12 14:56:25;;;;;;;47.92;30.88;;;4.40;99.90;;;;;;4995951;28;19925;-78
2021/11/12 14:59:03;;;;;;;50.35;31.27;;;4.30;99.90;;;;;;5015732;28;20023;-78
2021/11/12 15:01:32;;;;;;;49.50;30.23;;;4.20;99.90;;;;;;5000768;28;20061;-77
2021/11/12 15:03:57;;;;;;;54.90;32.70;;;4.10;99.90;;;;;;5000267;28;20046;-80
2021/11/12 15:06:25;;;;;;;50.42;31.75;;;4.10;99.90;;;;;;4999964;28;20030;-77
2021/11/12 15:11:23;;;;;;;47.15;29.05;;;3.90;99.90;;;;;;4992263;28;20026;-77
2021/11/12 15:13:50;;;;;;;44.65;31.02;;;3.90;99.90;;;;;;4994963;28;20105;-79
2021/11/12 15:18:44;;;;;;;46.00;28.65;;;3.90;99.90;;;;;;5019669;28;20049;-79
2021/11/12 15:21:16;;;;;;;47.75;29.80;;;3.90;99.90;;;;;;5014649;28;20098;-77
2021/11/12 15:29:05;;;;;;;51.35;28.90;;;3.80;99.90;;;;;;5003405;28;20042;-77
2021/11/12 15:34:13;;;;;;;46.78;30.30;;;3.70;99.90;;;;;;5007761;28;20058;-77
2021/11/12 15:44:40;;;;;;;51.75;31.55;;;3.70;99.90;;;;;;4995434;28;20018;-78
2021/11/12 15:49:41;;;;;;;53.42;30.55;;;4.10;99.90;;;;;;4992799;28;20033;-77
2021/11/12 15:52:10;;;;;;;50.80;27.88;;;4.10;99.90;;;;;;4994230;28;20049;-78
2021/11/12 15:54:50;;;;;;;49.80;29.83;;;4.00;99.90;;;;;;4998502;28;20026;-77
2021/11/12 16:02:41;;;;;;;45.67;31.27;;;3.90;99.90;;;;;;4994088;28;20113;-78
2021/11/12 16:08:29;;;;;;;45.70;27.45;;;4.00;99.90;;;;;;4983616;28;21021;-76
2021/11/12 16:13:23;;;;;;;46.10;27.40;;;4.20;99.90;;;;;;4990746;28;20089;-76
2021/11/12 16:24:04;;;;;;;43.05;27.20;;;4.30;99.90;;;;;;4994047;28;20022;-76
2021/11/12 16:26:31;;;;;;;61.30;26.60;;;4.20;99.90;;;;;;4996381;28;20018;-78
2021/11/12 16:29:10;;;;;;;49.08;26.10;;;4.20;99.90;;;;;;4987273;28;20025;-77
2021/11/12 16:31:38;;;;;;;60.33;29.38;;;4.20;99.90;;;;;;4997015;28;20504;-75
2021/11/12 16:34:14;;;;;;;54.83;29.52;;;4.20;99.90;;;;;;4992829;28;20077;-78
2021/11/12 16:36:47;;;;;;;52.83;26.73;;;4.20;99.90;;;;;;4988513;28;20038;-77
2021/11/12 16:39:16;;;;;;;45.20;27.33;;;4.20;99.90;;;;;;4993277;28;20027;-76
2021/11/12 16:47:17;;;;;;;42.55;27.10;;;4.10;99.90;;;;;;4991952;28;20034;-76
2021/11/12 16:50:01;;;;;;;45.47;28.30;;;4.10;99.90;;;;;;4983551;28;20275;-77
2021/11/12 17:03:41;;;;;;;44.83;27.83;;;4.10;99.90;;;;;;4981326;28;20046;-75
2021/11/12 17:18:45;;;;;;;44.50;26.25;;;4.00;99.90;;;;;;4994271;28;20027;-73
2021/11/12 17:21:51;;;;;;;57.13;26.40;;;4.00;99.90;;;;;;5039654;23;20038;-76
2021/11/12 17:48:34;;;;;;;58.65;33.63;;;3.80;99.90;;;;;;5012557;28;20034;-77
2021/11/12 18:04:57;;;;;;;66.63;39.00;;;3.80;99.90;;;;;;5018311;28;20018;-77
2021/11/12 18:07:21;;;;;;;65.40;37.00;;;3.80;99.90;;;;;;5013649;28;20034;-78
2021/11/12 18:15:48;;;;;;;68.68;35.88;;;3.80;99.90;;;;;;5015499;28;20033;-81
2021/11/12 18:18:11;;;;;;;80.63;36.90;;;3.80;99.90;;;;;;5020722;28;20109;-79
2021/11/12 21:45:36;;;;;;;37.50;24.55;;;3.40;99.90;;;;;;5027882;28;20037;-84
2021/11/12 21:48:03;;;;;;;29.33;22.90;;;3.30;99.90;;;;;;5027857;28;20022;-79
2021/11/12 21:50:31;;;;;;;31.13;22.38;;;3.40;99.90;;;;;;5017878;28;20450;-77
2021/11/12 21:52:57;;;;;;;29.05;22.75;;;3.40;99.90;;;;;;5014203;28;20026;-78
2021/11/12 21:55:22;;;;;;;23.30;19.27;;;3.60;99.90;;;;;;5015436;28;20093;-78
2021/11/12 21:57:48;;;;;;;24.10;19.85;;;3.70;99.90;;;;;;5021943;28;20026;-78
2021/11/12 22:00:14;;;;;;;23.45;20.52;;;3.80;99.90;;;;;;5016106;28;20022;-78
2021/11/12 22:02:40;;;;;;;27.25;20.13;;;3.80;99.90;;;;;;5020663;28;20034;-76
2021/11/12 22:05:06;;;;;;;23.58;20.02;;;3.60;99.90;;;;;;5020843;28;20026;-76
2021/11/12 22:07:32;;;;;;;23.95;19.52;;;3.50;99.90;;;;;;5031635;28;20077;-75
2021/11/12 22:09:58;;;;;;;26.42;20.25;;;3.40;99.90;;;;;;5017221;28;20033;-77
2021/11/12 22:12:23;;;;;;;25.92;20.05;;;3.30;99.90;;;;;;5030032;28;20037;-76
2021/11/12 22:14:49;;;;;;;25.23;20.63;;;3.30;99.90;;;;;;5015950;28;20481;-79
2021/11/12 22:17:15;;;;;;;26.48;21.50;;;3.50;99.90;;;;;;5014183;28;20176;-76
2021/11/12 22:19:40;;;;;;;29.45;22.60;;;3.70;99.90;;;;;;5006437;28;20366;-77
2021/11/12 22:22:06;;;;;;;29.48;22.38;;;3.60;99.90;;;;;;5014475;28;20097;-76
2021/11/12 22:24:31;;;;;;;27.80;21.33;;;3.60;99.90;;;;;;5018340;28;20026;-75
2021/11/12 22:26:57;;;;;;;27.67;20.60;;;3.60;99.90;;;;;;5017553;28;20021;-78
2021/11/12 22:29:23;;;;;;;29.90;22.13;;;3.50;99.90;;;;;;5007589;28;20034;-76
2021/11/12 22:31:49;;;;;;;28.35;21.88;;;3.60;99.90;;;;;;5014715;28;20367;-75
2021/11/12 22:34:15;;;;;;;29.17;21.98;;;3.60;99.90;;;;;;5016798;28;20038;-74
2021/11/12 22:36:41;;;;;;;28.25;21.77;;;3.30;99.90;;;;;;5012845;28;20030;-76
2021/11/12 22:39:11;;;;;;;27.30;21.10;;;3.20;99.90;;;;;;5010346;28;20387;-76
2021/11/12 22:41:37;;;;;;;31.55;23.02;;;3.20;99.90;;;;;;5015219;28;20022;-76
2021/11/12 22:44:04;;;;;;;29.35;23.92;;;3.20;99.90;;;;;;5013200;28;20260;-76
2021/11/12 22:46:31;;;;;;;31.30;24.23;;;3.10;99.90;;;;;;5015046;28;20026;-76
2021/11/12 22:48:57;;;;;;;28.75;22.63;;;3.00;99.90;;;;;;5019438;28;20046;-77
2021/11/12 22:51:23;;;;;;;26.55;21.75;;;3.20;99.90;;;;;;5016693;28;20144;-77
2021/11/12 22:53:48;;;;;;;25.77;21.20;;;3.40;99.90;;;;;;5011570;28;20090;-75
2021/11/12 22:56:14;;;;;;;26.77;19.70;;;3.60;99.90;;;;;;5011797;28;20085;-76
2021/11/12 22:58:40;;;;;;;26.98;21.35;;;3.60;99.90;;;;;;5014569;28;20489;-77
2021/11/12 23:01:13;;;;;;;27.70;21.52;;;3.60;99.90;;;;;;5015245;28;20029;-77
2021/11/12 23:03:40;;;;;;;30.90;22.73;;;3.50;99.90;;;;;;5014581;28;20022;-75